Jeeppesen AviaClub

Карта отелей и гостиниц, располагающихся рядом с аэропортом Jeeppesen AviaClub :

Jeeppesen AviaClub
Bakbakty
Алматинская область 44° 33' 47.7612" N, 76° 38' 21.7788" E
Jeeppesen AviaClub
Bakbakty
Алматинская область 44° 33' 47.7612" N, 76° 38' 21.7788" E
Код аэродрома ИКАО
ZBC5
Код аэродрома RU
ЗБЦ5
Координаты
N44.56327° E076.63938°
Превышение над уровнем моря
Основная полоса
Курс магнитный
Длина основной ВПП
Ширина основной ВПП
Покрытие основной ВПП
Освещение ВПП
Тип: 
Аэродром
Класс аэродрома: 
Принадлежность: 
АОН
Статус: 
Действующий
Сайт: 
http://www.aviaclub.kz/
E-mail аэродрома: 
Страна: 
Казахстан
Регион: 
Алматинская область
Город: 
Bakbakty
Дополнительная информация: 

Найти трансфер

С помощью этой формы Вы можете найти трансфер из аэропорта Jeeppesen AviaClub в город, аэропорт или вокзал:

Карта места

Javascript is required to view this map.

Погода в аэропортах:

Авиационная погода в Сочи

Регион: 
Погода METAR: 
URSS 170530Z 14004G14MPS 100V200 9999 -SHRA BKN060CB OVC080 15/03 Q0996 WS ALL RWY R02/290060 R06/290060 NOSIG RMK QFE746 R06/12007G15MPS QFE746
Время наблюдения
2021-01-17T05:30:00Z
Температура C
15.0
Точка росы
3.0
Направление ветра
140
Скорость ветра (узлы)
8
Метео видимость
6.21
Явления погоды
-SHRA
Условия полета
VFR
Аэропорт подробнее: 

Авиационная погода в Уральске

Регион: 
Погода METAR: 
UARR 170530Z 22005MPS 3000 -SN BR SCT010 M15/M17 Q1013 R22/790136 TEMPO 1000 SN BR BKN003 RMK QFE756/1009
Время наблюдения
2021-01-17T05:30:00Z
Температура C
-15.0
Точка росы
-17.0
Направление ветра
220
Скорость ветра (узлы)
10
Метео видимость
1.86
Явления погоды
-SN BR
Условия полета
IFR
Аэропорт подробнее: 

Авиационная погода в Пскове

Регион: 
Погода METAR: 
ULOO 170600Z 31002MPS 290V020 6000 -SN OVC015 M16/M17 Q1018 RESN R01/490139 NOSIG RMK QFE759
Время наблюдения
2021-01-17T06:00:00Z
Температура C
-16.0
Точка росы
-17.0
Направление ветра
310
Скорость ветра (узлы)
4
Метео видимость
3.73
Явления погоды
-SN
Условия полета
MVFR

Авиационная погода в Грозном

Регион: 
Погода METAR: 
URMG 170530Z 05004MPS 4200 -RA BR OVC011 02/01 Q1007 R26/290250 TEMPO 0500 FZFG OVC002 RMK MT OBSC OBST OBSC QFE741/0988
Время наблюдения
2021-01-17T05:30:00Z
Температура C
2.0
Точка росы
1.0
Направление ветра
50
Скорость ветра (узлы)
8
Метео видимость
2.61
Явления погоды
-RA BR
Условия полета
IFR
Аэропорт подробнее: